Time;durP1;ratioP1;P1;durP2;ratioP2;P2;SDS_P1;SDS_P2;PMS_P1;PMS_P2;Temp;Humidity;BMP_temperature;BMP_pressure;BME280_temperature;BME280_humidity;BME280_pressure;Samples;Min_cycle;Max_cycle;Signal;HPM_P1;HPM_P2
2022/08/01 00:04:28;;;;;;;1.47;1.17;;;;;;;21.49;57.03;96836.88;10324866;28;20512;-25
2022/08/01 00:09:28;;;;;;;2.30;1.60;;;;;;;21.54;56.35;96837.66;10322168;28;20039;-26
2022/08/01 00:14:29;;;;;;;1.60;1.30;;;;;;;21.73;54.36;96839.19;10323318;28;20116;-25
2022/08/01 00:19:29;;;;;;;2.30;1.00;;;;;;;21.82;54.32;96834.00;10325116;28;20293;-25
2022/08/01 00:24:30;;;;;;;2.95;1.40;;;;;;;21.72;54.72;96840.06;10321098;28;20372;-26
2022/08/01 00:29:30;;;;;;;1.30;1.20;;;;;;;21.64;55.39;96841.81;10324981;28;20032;-26
2022/08/01 00:34:30;;;;;;;2.00;1.53;;;;;;;21.61;55.37;96839.31;10321178;28;20038;-28
2022/08/01 00:39:32;;;;;;;1.83;1.43;;;;;;;21.52;56.53;96830.91;10318666;28;20037;-26
2022/08/01 00:44:34;;;;;;;1.25;1.13;;;;;;;21.58;55.75;96843.59;10324098;28;20046;-26
2022/08/01 00:49:34;;;;;;;1.67;1.15;;;;;;;21.56;56.30;96840.22;10321534;28;20121;-26
2022/08/01 00:54:35;;;;;;;1.80;1.20;;;;;;;21.57;55.85;96842.72;10331780;28;20030;-25
2022/08/01 00:59:36;;;;;;;3.00;1.10;;;;;;;21.55;56.66;96836.81;10330319;28;20042;-26
2022/08/01 01:04:36;;;;;;;1.60;1.20;;;;;;;21.70;54.31;96839.25;10331989;28;20042;-25
2022/08/01 01:10:06;;;;;;;2.77;1.30;;;;;;;21.79;53.92;96834.03;10329189;28;20108;-25
2022/08/01 01:15:10;;;;;;;1.30;1.20;;;;;;;21.73;54.61;96838.38;10312843;28;20055;-26
2022/08/01 01:20:13;;;;;;;2.38;1.20;;;;;;;21.68;54.35;96846.06;10330674;28;20065;-26
2022/08/01 01:25:29;;;;;;;1.77;1.30;;;;;;;21.65;54.95;96845.25;10329032;28;20046;-26
2022/08/01 01:30:32;;;;;;;2.47;1.33;;;;;;;21.61;55.05;96844.41;10329747;28;20046;-26
2022/08/01 01:35:38;;;;;;;1.52;1.20;;;;;;;21.60;56.02;96842.72;10326910;28;20106;-26
2022/08/01 01:40:40;;;;;;;3.22;1.45;;;;;;;21.57;55.26;96837.63;10331063;28;20037;-27
2022/08/01 01:45:41;;;;;;;2.22;1.65;;;;;;;21.56;54.89;96835.13;10325969;28;20084;-26
2022/08/01 01:50:45;;;;;;;1.65;1.33;;;;;;;21.57;54.81;96839.34;10328970;28;20058;-26
2022/08/01 01:55:51;;;;;;;1.38;1.27;;;;;;;21.70;54.24;96838.38;10331261;28;20038;-26
2022/08/01 02:00:53;;;;;;;;;;;;;;;21.76;54.12;96848.50;10327548;28;20452;-25
2022/08/01 02:05:54;;;;;;;2.38;1.13;;;;;;;21.68;54.35;96845.19;10327192;28;20392;-26
2022/08/01 02:16:16;;;;;;;1.90;1.50;;;;;;;21.58;54.96;96844.44;10326915;28;20122;-25
2022/08/01 02:21:24;;;;;;;1.50;1.35;;;;;;;21.58;54.85;96839.34;10325735;28;20546;-26
2022/08/01 02:26:26;;;;;;;1.35;1.25;;;;;;;21.54;55.94;96844.47;10328832;28;20092;-27
2022/08/01 02:31:30;;;;;;;1.70;1.50;;;;;;;21.53;54.96;96840.22;10325218;28;20089;-27
2022/08/01 02:36:37;;;;;;;1.90;1.17;;;;;;;21.50;54.99;96841.13;10324996;28;20061;-27
2022/08/01 02:41:43;;;;;;;2.55;1.30;;;;;;;21.48;55.25;96842.81;10323199;28;20564;-25
2022/08/01 02:46:50;;;;;;;2.42;1.50;;;;;;;21.58;54.04;96844.44;10325599;28;20454;-26
2022/08/01 02:51:52;;;;;;;2.08;1.30;;;;;;;21.63;54.28;96842.66;10326491;28;20169;-26
2022/08/01 02:56:55;;;;;;;2.33;1.67;;;;;;;21.59;54.21;96845.28;10327022;28;20038;-26
2022/08/01 03:01:57;;;;;;;3.08;1.80;;;;;;;21.54;54.63;96847.88;10323900;28;20109;-26
2022/08/01 03:06:58;;;;;;;5.22;2.03;;;;;;;21.53;54.43;96848.72;10323598;28;20030;-25
2022/08/01 03:12:02;;;;;;;2.38;1.50;;;;;;;21.48;54.62;96842.00;10326985;28;20038;-26
2022/08/01 03:17:05;;;;;;;1.95;1.70;;;;;;;21.49;55.77;96839.41;10324579;28;20041;-26
2022/08/01 03:22:08;;;;;;;2.42;1.80;;;;;;;21.50;55.59;96841.13;10323391;28;20030;-26
2022/08/01 03:27:09;;;;;;;2.85;1.55;;;;;;;21.41;55.00;96833.53;10326515;28;20408;-26
2022/08/01 03:32:11;;;;;;;1.85;1.60;;;;;;;21.50;55.29;96848.75;10320930;28;20627;-26
2022/08/01 03:37:21;;;;;;;2.15;1.50;;;;;;;21.57;54.20;96842.72;10323456;28;20035;-25
2022/08/01 03:42:28;;;;;;;2.08;1.88;;;;;;;21.68;53.76;96846.06;10325936;28;20030;-25
2022/08/01 03:47:34;;;;;;;2.15;1.60;;;;;;;21.65;54.06;96855.44;10320188;28;20034;-26
2022/08/01 03:52:39;;;;;;;3.10;1.63;;;;;;;21.59;54.17;96845.28;10324480;28;20026;-26
2022/08/01 03:57:39;;;;;;;2.47;1.80;;;;;;;21.54;54.84;96840.22;10326698;28;20061;-26
2022/08/01 04:02:41;;;;;;;2.22;1.52;;;;;;;21.51;54.78;96841.94;10324574;28;20081;-26
2022/08/01 04:07:48;;;;;;;2.00;1.85;;;;;;;21.48;54.92;96837.72;10320882;28;20058;-26
2022/08/01 04:12:49;;;;;;;2.70;1.70;;;;;;;21.48;54.34;96832.63;10325566;28;20037;-25
2022/08/01 04:17:49;;;;;;;2.25;1.67;;;;;;;21.48;54.51;96830.09;10322679;28;20492;-26
2022/08/01 04:22:50;;;;;;;2.30;1.87;;;;;;;21.45;55.90;96837.75;10321776;28;20410;-26
2022/08/01 04:27:52;;;;;;;1.98;1.67;;;;;;;21.53;54.31;96836.00;10324488;28;20026;-26
2022/08/01 04:32:57;;;;;;;2.00;1.70;;;;;;;21.63;54.08;96841.84;10322673;28;20034;-26
2022/08/01 04:38:01;;;;;;;2.75;2.42;;;;;;;21.61;53.86;96841.84;10320648;28;20069;-26
2022/08/01 04:43:02;;;;;;;2.10;1.90;;;;;;;21.56;54.22;96846.13;10320517;28;20034;-26
2022/08/01 04:48:06;;;;;;;2.17;1.98;;;;;;;21.52;54.69;96836.84;10323045;28;20117;-27
2022/08/01 04:53:12;;;;;;;1.55;1.45;;;;;;;20.69;58.89;96851.09;10322481;28;20065;-26
2022/08/01 04:58:14;;;;;;;;;;;;;;;20.25;59.57;96842.88;10322683;28;20042;-26
2022/08/01 05:03:14;;;;;;;2.55;2.17;;;;;;;20.30;59.37;96842.84;10321859;28;20008;-26
2022/08/01 05:08:16;;;;;;;2.58;2.35;;;;;;;20.21;59.56;96835.28;10320080;28;20034;-26
2022/08/01 05:13:16;;;;;;;2.63;2.25;;;;;;;20.17;59.70;96833.63;10320484;28;20038;-26
2022/08/01 05:18:16;;;;;;;2.63;2.40;;;;;;;20.25;59.57;96831.88;10323538;28;20038;-25
2022/08/01 05:23:17;;;;;;;3.20;2.50;;;;;;;20.28;59.28;96836.94;10319801;28;20504;-26
2022/08/01 05:28:18;;;;;;;2.90;2.42;;;;;;;20.29;59.09;96843.72;10299474;28;20046;-25
2022/08/01 05:33:20;;;;;;;3.40;2.70;;;;;;;20.30;58.83;96840.31;10258773;28;20101;-25
2022/08/01 05:38:20;;;;;;;6.40;2.85;;;;;;;20.31;59.13;96840.31;10261333;28;20070;-26
2022/08/01 05:43:21;;;;;;;3.93;2.70;;;;;;;20.26;60.12;96839.47;10274676;28;20650;-25
2022/08/01 05:48:21;;;;;;;2.93;2.57;;;;;;;20.26;60.27;96836.13;10262232;28;20205;-25
2022/08/01 05:53:22;;;;;;;5.03;2.70;;;;;;;20.32;60.46;96838.59;10270329;28;20579;-27
2022/08/01 05:58:22;;;;;;;5.63;4.37;;;;;;;20.38;60.23;96833.50;10272741;28;20050;-27
2022/08/01 06:03:23;;;;;;;5.55;3.13;;;;;;;20.42;60.33;96835.19;10268604;28;21199;-27
2022/08/01 06:08:23;;;;;;;5.25;3.35;;;;;;;20.45;60.44;96829.22;10269110;28;20038;-27
2022/08/01 06:13:24;;;;;;;3.27;2.90;;;;;;;20.58;60.04;96835.06;10268807;28;20489;-27
2022/08/01 06:18:24;;;;;;;3.58;3.17;;;;;;;20.62;59.93;96840.13;10321841;28;20488;-26
2022/08/01 06:23:25;;;;;;;3.37;3.07;;;;;;;20.61;59.82;96829.94;10322052;28;20069;-26
2022/08/01 06:28:25;;;;;;;5.00;2.97;;;;;;;20.68;59.70;96832.44;10327612;28;20347;-25
2022/08/01 06:33:26;;;;;;;3.27;2.70;;;;;;;20.71;59.40;96829.88;10325067;28;20045;-26
2022/08/01 06:38:26;;;;;;;4.70;2.95;;;;;;;20.72;59.30;96821.38;10306420;28;20089;-25
2022/08/01 06:43:27;;;;;;;2.67;2.43;;;;;;;20.78;59.03;96821.34;10279079;28;20116;-25
2022/08/01 06:48:27;;;;;;;3.73;3.03;;;;;;;20.82;59.13;96823.00;10274656;28;20515;-26
2022/08/01 06:53:27;;;;;;;4.27;3.87;;;;;;;20.88;58.93;96817.91;10275272;28;20042;-25
2022/08/01 06:58:28;;;;;;;3.23;2.93;;;;;;;21.05;58.59;96823.69;10277750;28;20048;-27
2022/08/01 07:03:28;;;;;;;3.42;2.67;;;;;;;21.11;58.34;96832.97;10276442;28;20066;-26
2022/08/01 07:08:29;;;;;;;3.70;3.10;;;;;;;21.32;57.67;96817.53;10276431;28;20035;-26
2022/08/01 07:13:30;;;;;;;3.97;2.58;;;;;;;21.36;57.51;96821.72;10273555;28;20042;-26
2022/08/01 07:18:31;;;;;;;3.28;2.83;;;;;;;21.30;57.56;96821.81;10269497;28;20228;-27
2022/08/01 07:23:31;;;;;;;6.67;3.23;;;;;;;21.39;57.71;96812.34;10271945;28;20042;-26
2022/08/01 07:28:31;;;;;;;3.40;2.73;;;;;;;21.33;58.07;96812.44;10275563;28;20038;-26
2022/08/01 07:33:32;;;;;;;5.07;3.00;;;;;;;21.28;57.89;96814.16;10268615;28;20281;-26
2022/08/01 07:38:32;;;;;;;6.63;2.70;;;;;;;21.26;57.73;96815.03;10281385;28;20598;-27
2022/08/01 07:43:32;;;;;;;3.33;3.03;;;;;;;21.23;57.78;96800.63;10319778;28;20038;-27
2022/08/01 07:48:33;;;;;;;3.40;2.60;;;;;;;21.26;57.81;96810.78;10313722;28;20037;-26
2022/08/01 07:53:34;;;;;;;3.03;2.70;;;;;;;21.41;57.72;96805.53;10323203;28;20042;-26
2022/08/01 07:58:34;;;;;;;3.38;2.92;;;;;;;21.56;57.02;96795.19;10315802;28;20064;-25
2022/08/01 08:03:34;;;;;;;2.57;2.37;;;;;;;21.59;56.65;96795.16;10325121;28;20121;-25
2022/08/01 08:08:35;;;;;;;2.97;2.73;;;;;;;21.46;57.21;96792.78;10291780;28;20023;-25
2022/08/01 08:13:35;;;;;;;3.43;2.60;;;;;;;21.41;57.23;96794.50;10324727;28;20117;-26
2022/08/01 08:18:36;;;;;;;5.63;3.20;;;;;;;21.38;57.47;96785.19;10319742;28;20289;-25
2022/08/01 08:28:55;;;;;;;5.47;2.95;;;;;;;21.36;57.91;96781.81;10300990;28;20034;-26
2022/08/01 08:33:56;;;;;;;3.23;2.63;;;;;;;21.34;57.58;96786.09;10312464;28;20030;-26
2022/08/01 08:38:56;;;;;;;3.53;3.13;;;;;;;21.36;57.47;96779.28;10320726;28;20062;-25
2022/08/01 08:43:58;;;;;;;4.45;3.33;;;;;;;21.43;57.22;96790.25;10323310;28;20037;-26
2022/08/01 08:49:02;;;;;;;3.58;3.28;;;;;;;21.62;56.84;96795.13;10318295;28;20608;-25
2022/08/01 08:54:05;;;;;;;6.55;3.85;;;;;;;21.63;56.77;96781.50;10323252;28;20034;-27
2022/08/01 08:59:05;;;;;;;2.67;2.40;;;;;;;21.53;57.10;96790.13;10324181;28;20038;-26
2022/08/01 09:04:06;;;;;;;4.73;3.10;;;;;;;21.48;57.12;96785.94;10319377;28;20516;-26
2022/08/01 09:09:07;;;;;;;3.50;2.47;;;;;;;21.45;57.28;96786.81;10321006;28;20288;-26
2022/08/01 09:14:11;;;;;;;3.58;3.00;;;;;;;21.43;57.36;96790.25;10320763;28;20663;-26
2022/08/01 09:19:19;;;;;;;6.63;3.15;;;;;;;21.40;57.54;96796.19;10328904;28;20813;-25
2022/08/01 09:24:20;;;;;;;3.17;2.85;;;;;;;21.39;57.18;96797.06;10329405;28;20042;-25
2022/08/01 09:29:29;;;;;;;4.00;2.77;;;;;;;21.36;57.50;96786.91;10318366;28;20412;-25
2022/08/01 09:34:30;;;;;;;6.07;2.90;;;;;;;21.31;58.13;96788.66;10334411;28;20281;-24
2022/08/01 09:39:37;;;;;;;4.63;2.60;;;;;;;21.60;57.00;96779.00;10330793;28;20605;-27
2022/08/01 09:44:39;;;;;;;4.55;2.90;;;;;;;21.73;56.53;96777.19;10275581;28;20133;-27
2022/08/01 09:49:41;;;;;;;5.00;2.40;;;;;;;21.59;56.98;96779.88;10319308;28;20037;-26
2022/08/01 09:54:51;;;;;;;5.32;2.63;;;;;;;21.50;57.24;96779.97;10328668;28;20042;-25
2022/08/01 09:59:54;;;;;;;6.50;2.90;;;;;;;21.48;57.33;96779.13;10329092;28;20053;-26
2022/08/01 10:04:54;;;;;;;6.00;2.60;;;;;;;21.47;57.30;96779.16;10327152;28;20065;-25
2022/08/01 10:09:55;;;;;;;6.13;2.83;;;;;;;21.45;57.20;96776.63;10321844;28;20121;-27
2022/08/01 10:14:57;;;;;;;5.07;2.95;;;;;;;21.46;57.26;96778.31;10327406;28;20045;-26
2022/08/01 10:19:59;;;;;;;5.10;2.90;;;;;;;21.44;57.23;96762.22;10326221;28;20590;-25
2022/08/01 10:25:03;;;;;;;2.25;2.05;;;;;;;21.42;57.36;96757.97;10321633;28;20126;-26
2022/08/01 10:30:05;;;;;;;2.67;2.47;;;;;;;21.63;56.90;96757.75;10320715;28;20031;-26
2022/08/01 10:35:07;;;;;;;2.70;2.40;;;;;;;21.76;56.47;96752.53;10323721;28;20052;-26
2022/08/01 10:40:10;;;;;;;2.30;2.05;;;;;;;21.67;56.81;96746.69;10325140;28;20033;-25
2022/08/01 10:45:15;;;;;;;5.65;2.75;;;;;;;21.57;57.13;96735.72;10322371;28;20071;-26
2022/08/01 10:50:27;;;;;;;6.25;2.40;;;;;;;21.53;57.18;96741.72;10321103;28;20026;-27
2022/08/01 10:55:27;;;;;;;4.45;2.15;;;;;;;21.50;57.33;96744.31;10326068;28;20567;-26
2022/08/01 11:00:28;;;;;;;2.03;1.93;;;;;;;21.46;57.38;96732.47;10326378;28;20085;-25
2022/08/01 11:05:32;;;;;;;3.27;2.50;;;;;;;21.48;57.40;96740.91;10318106;28;20038;-26
2022/08/01 11:10:42;;;;;;;3.58;2.67;;;;;;;21.50;57.30;96738.38;10327699;28;20061;-26
2022/08/01 11:15:43;;;;;;;6.22;2.15;;;;;;;21.44;57.29;96733.34;10317565;28;20041;-27
2022/08/01 11:20:57;;;;;;;1.97;1.87;;;;;;;21.64;57.35;96722.03;10300093;28;20037;-26
2022/08/01 11:26:00;;;;;;;2.28;2.08;;;;;;;21.72;56.80;96709.25;10265389;28;20038;-27
2022/08/01 11:31:07;;;;;;;3.63;1.83;;;;;;;21.67;56.99;96709.31;10284224;28;20033;-26
2022/08/01 11:36:13;;;;;;;;;;;;;;;21.57;57.32;96705.13;10304720;28;20041;-27
2022/08/01 11:41:27;;;;;;;4.13;2.10;;;;;;;21.50;57.52;96693.38;10278125;28;19926;-26
2022/08/01 11:46:51;;;;;;;2.20;2.00;;;;;;;21.48;57.61;96694.25;10274092;28;20590;-26
2022/08/01 11:52:04;;;;;;;3.65;2.00;;;;;;;21.47;57.67;96687.47;10267517;28;20042;-24
2022/08/01 11:57:34;;;;;;;2.83;2.50;;;;;;;21.46;57.49;96685.78;10277444;28;20049;-26
2022/08/01 12:02:35;;;;;;;2.78;1.90;;;;;;;21.41;57.45;96687.53;10309350;28;20046;-25
2022/08/01 12:07:36;;;;;;;8.98;2.38;;;;;;;21.46;57.57;96696.78;10321051;28;20030;-25
2022/08/01 12:12:43;;;;;;;2.53;1.88;;;;;;;21.70;57.24;96698.22;10325503;28;20041;-25
2022/08/01 12:17:46;;;;;;;4.55;2.10;;;;;;;21.63;57.29;96692.34;10320755;28;20045;-24
2022/08/01 12:22:47;;;;;;;7.43;2.35;;;;;;;21.61;57.53;96686.41;10314753;28;20030;-24
2022/08/01 12:27:48;;;;;;;10.95;3.10;;;;;;;21.58;57.61;96695.81;10323939;28;20045;-25
2022/08/01 12:32:48;;;;;;;7.72;2.47;;;;;;;21.57;57.53;96686.47;10321087;28;20489;-24
2022/08/01 12:37:54;;;;;;;3.63;2.07;;;;;;;21.51;57.62;96684.00;10319075;28;20038;-25
2022/08/01 12:42:57;;;;;;;4.20;1.83;;;;;;;21.54;57.72;96684.81;10318673;28;20783;-25
2022/08/01 12:47:59;;;;;;;3.80;2.35;;;;;;;21.52;57.65;96676.34;10274029;28;20030;-24
2022/08/01 12:53:00;;;;;;;5.68;2.47;;;;;;;21.51;57.49;96674.66;10294091;28;20088;-25
2022/08/01 12:58:05;;;;;;;3.45;2.05;;;;;;;21.50;57.74;96688.28;10323472;28;20041;-24
2022/08/01 13:03:14;;;;;;;2.85;1.70;;;;;;;21.71;57.31;96682.91;10321134;28;20041;-25
2022/08/01 13:08:21;;;;;;;3.05;1.77;;;;;;;21.86;57.12;96672.53;10317196;28;20084;-24
2022/08/01 13:13:22;;;;;;;2.55;1.98;;;;;;;21.77;57.31;96666.69;10322401;28;20145;-25
2022/08/01 13:18:31;;;;;;;2.90;2.20;;;;;;;21.67;57.32;96663.44;10324155;28;20844;-26
2022/08/01 13:23:31;;;;;;;2.70;1.63;;;;;;;21.60;57.53;96655.84;10317386;28;20046;-25
2022/08/01 13:28:33;;;;;;;2.57;1.93;;;;;;;21.60;57.83;96654.16;10314831;28;20056;-25
2022/08/01 13:33:47;;;;;;;3.40;2.25;;;;;;;21.51;57.81;96649.19;10317636;28;20030;-26
2022/08/01 13:44:08;;;;;;;7.10;3.38;;;;;;;21.59;57.18;96652.47;10320863;28;20044;-25
2022/08/01 13:49:11;;;;;;;4.20;2.60;;;;;;;21.55;57.58;96650.81;10323307;28;20507;-26
2022/08/01 13:54:11;;;;;;;5.15;2.25;;;;;;;21.75;56.72;96643.81;10321680;28;20034;-25
2022/08/01 13:59:12;;;;;;;5.88;3.00;;;;;;;21.89;56.62;96638.50;10297059;28;20101;-25
2022/08/01 14:04:13;;;;;;;4.50;2.72;;;;;;;21.78;57.05;96633.56;10290452;28;20108;-25
2022/08/01 14:09:16;;;;;;;4.43;2.83;;;;;;;21.68;58.03;96642.19;10293267;28;20113;-25
2022/08/01 14:14:16;;;;;;;5.88;3.55;;;;;;;21.56;58.32;96626.19;10321583;28;20444;-25
2022/08/01 14:19:17;;;;;;;5.93;2.80;;;;;;;21.52;58.14;96625.41;10325817;28;20046;-26
2022/08/01 14:24:18;;;;;;;5.55;2.78;;;;;;;21.55;58.24;96629.63;10314988;28;20046;-25
2022/08/01 14:29:18;;;;;;;4.20;2.43;;;;;;;21.51;58.18;96627.97;10274462;28;20432;-25
2022/08/01 14:34:18;;;;;;;2.60;2.30;;;;;;;21.49;58.36;96625.41;10273776;28;20050;-26
2022/08/01 14:39:19;;;;;;;3.40;2.20;;;;;;;21.51;58.23;96631.34;10271157;28;20313;-25
2022/08/01 14:44:19;;;;;;;4.87;2.30;;;;;;;21.68;57.48;96642.19;10277892;28;20046;-25
2022/08/01 14:49:20;;;;;;;5.55;3.05;;;;;;;21.87;57.37;96635.13;10273015;28;20041;-26
2022/08/01 14:54:20;;;;;;;2.92;2.30;;;;;;;21.74;57.18;96631.06;10275770;28;20054;-24
2022/08/01 14:59:21;;;;;;;5.63;2.47;;;;;;;21.67;57.79;96635.44;10277162;28;20042;-24
2022/08/01 15:04:21;;;;;;;10.37;3.00;;;;;;;21.49;58.87;96639.88;10266531;28;20304;-24
2022/08/01 15:09:23;;;;;;;7.32;2.60;;;;;;;21.58;58.45;96645.72;10267949;28;20674;-25
2022/08/01 15:19:42;;;;;;;4.97;2.63;;;;;;;21.51;58.48;96643.25;10276093;28;20072;-26
2022/08/01 15:24:43;;;;;;;4.13;2.20;;;;;;;21.58;58.38;96645.72;10275757;28;20527;-29
2022/08/01 15:29:43;;;;;;;9.05;3.03;;;;;;;21.59;58.32;96652.47;10271580;28;20398;-26
2022/08/01 15:34:44;;;;;;;7.15;2.65;;;;;;;21.72;58.33;96651.47;10276132;28;20440;-26
2022/08/01 15:39:45;;;;;;;3.65;2.13;;;;;;;21.90;57.87;96666.50;10273854;28;20619;-24
2022/08/01 15:44:45;;;;;;;3.58;2.10;;;;;;;21.87;57.64;96648.72;10294926;28;20382;-25
2022/08/01 15:49:46;;;;;;;5.72;2.10;;;;;;;21.73;57.72;96644.69;10326164;28;20026;-25
2022/08/01 15:54:46;;;;;;;4.43;2.30;;;;;;;21.67;57.95;96645.63;10323859;28;20464;-25
2022/08/01 15:59:46;;;;;;;6.67;2.17;;;;;;;21.64;58.08;96639.69;10325953;28;20030;-25
2022/08/01 16:04:47;;;;;;;4.87;2.00;;;;;;;21.60;58.20;96638.88;10325534;28;20555;-25
2022/08/01 16:09:47;;;;;;;4.30;2.10;;;;;;;21.61;58.33;96649.91;10322920;28;20140;-25
2022/08/01 16:14:47;;;;;;;5.17;3.10;;;;;;;21.61;58.10;96648.19;10317816;28;20155;-25
2022/08/01 16:19:49;;;;;;;5.77;2.50;;;;;;;21.61;58.31;96640.56;10325573;28;20291;-26
2022/08/01 16:24:50;;;;;;;6.32;2.85;;;;;;;21.71;58.41;96657.44;10320962;28;20536;-26
2022/08/01 16:29:50;;;;;;;2.70;2.10;;;;;;;21.90;57.80;96648.66;10311945;28;20038;-26
2022/08/01 16:34:51;;;;;;;3.00;2.60;;;;;;;21.93;57.46;96646.09;10293523;28;20077;-27
2022/08/01 16:39:51;;;;;;;2.23;2.03;;;;;;;21.74;57.91;96642.09;10294785;28;20042;-25
2022/08/01 16:44:51;;;;;;;3.17;2.07;;;;;;;21.70;57.93;96650.66;10281667;28;20113;-25
2022/08/01 16:49:52;;;;;;;6.10;2.60;;;;;;;21.64;57.93;96645.59;10292117;28;20401;-25
2022/08/01 16:54:52;;;;;;;4.33;1.80;;;;;;;21.63;57.99;96649.03;10290689;28;20042;-25
2022/08/01 16:59:52;;;;;;;4.20;2.60;;;;;;;21.58;58.20;96643.16;10288770;28;20046;-25
2022/08/01 17:04:53;;;;;;;5.00;2.03;;;;;;;21.59;58.34;96637.19;10292329;28;20050;-26
2022/08/01 17:09:53;;;;;;;3.60;2.10;;;;;;;21.60;58.06;96638.03;10322071;28;20041;-25
2022/08/01 17:14:54;;;;;;;3.53;2.40;;;;;;;21.60;58.50;96649.06;10308529;28;20027;-25
2022/08/01 17:19:54;;;;;;;3.33;1.77;;;;;;;21.86;57.96;96646.19;10300118;28;20814;-25
2022/08/01 17:24:54;;;;;;;2.10;1.70;;;;;;;21.95;57.45;96662.19;10322312;28;20034;-25
2022/08/01 17:29:55;;;;;;;2.23;1.90;;;;;;;21.77;58.04;96665.00;10321159;28;20034;-26
2022/08/01 17:34:55;;;;;;;8.37;1.90;;;;;;;21.70;58.10;96686.34;10330783;28;20510;-26
2022/08/01 17:39:56;;;;;;;4.03;2.30;;;;;;;21.68;58.04;96685.53;10328060;28;20034;-26
2022/08/01 17:44:57;;;;;;;3.30;2.50;;;;;;;21.71;58.14;96685.47;10329795;28;20281;-26
2022/08/01 17:50:01;;;;;;;3.25;2.85;;;;;;;21.72;58.31;96692.25;10327200;28;20027;-25
2022/08/01 17:55:02;;;;;;;2.65;2.38;;;;;;;21.72;58.11;96730.47;10327794;28;20412;-25
2022/08/01 18:00:05;;;;;;;5.82;2.80;;;;;;;21.77;58.80;96733.81;10326993;28;20046;-26
2022/08/01 18:05:05;;;;;;;3.45;2.45;;;;;;;21.81;58.56;96739.72;10300759;28;20034;-26
2022/08/01 18:10:06;;;;;;;4.18;2.08;;;;;;;21.94;58.23;96772.69;10288209;28;20092;-26
2022/08/01 18:15:07;;;;;;;3.47;1.60;;;;;;;22.08;57.94;96841.34;10287181;28;20034;-26
2022/08/01 18:20:08;;;;;;;4.03;2.30;;;;;;;22.03;58.67;96896.63;10285913;28;20451;-26
2022/08/01 18:25:09;;;;;;;5.25;2.20;;;;;;;21.88;58.54;96863.69;10284151;28;20756;-25
2022/08/01 18:30:09;;;;;;;4.15;1.95;;;;;;;21.79;58.20;96863.75;10290635;28;20043;-25
2022/08/01 18:35:10;;;;;;;4.80;2.10;;;;;;;21.74;58.49;96860.44;10302619;28;20045;-26
2022/08/01 18:40:10;;;;;;;5.67;2.17;;;;;;;21.74;59.60;96861.25;10316340;28;20034;-25
2022/08/01 18:45:11;;;;;;;6.55;1.90;;;;;;;21.74;59.97;96856.16;10319864;28;20293;-26
2022/08/01 18:50:11;;;;;;;2.85;1.90;;;;;;;21.94;59.66;96851.72;10321353;28;20034;-25
2022/08/01 18:55:12;;;;;;;3.13;1.43;;;;;;;22.03;58.64;96863.50;10323110;28;20430;-26
2022/08/01 19:00:13;;;;;;;4.33;1.70;;;;;;;21.89;58.96;96866.19;10321462;28;20451;-25
2022/08/01 19:05:14;;;;;;;2.35;1.65;;;;;;;21.80;58.91;96861.22;10320746;28;20049;-25
2022/08/01 19:10:14;;;;;;;2.92;2.10;;;;;;;21.79;58.97;96861.22;10321816;28;20035;-24
2022/08/01 19:15:15;;;;;;;3.50;1.97;;;;;;;21.75;58.68;96852.78;10322083;28;20038;-26
2022/08/01 19:20:15;;;;;;;2.50;2.03;;;;;;;21.74;58.64;96855.34;10321624;28;20129;-25
2022/08/01 19:25:16;;;;;;;3.10;1.58;;;;;;;21.87;60.14;96847.53;10320022;28;20050;-26
2022/08/01 19:30:18;;;;;;;2.80;1.80;;;;;;;22.04;59.27;96835.44;10316947;28;20037;-27
2022/08/01 19:35:18;;;;;;;1.70;1.60;;;;;;;21.88;59.47;96828.00;10321275;28;20100;-25
2022/08/01 19:40:19;;;;;;;3.15;1.50;;;;;;;21.83;59.04;96835.72;10321287;28;20558;-26
2022/08/01 19:45:20;;;;;;;1.65;1.50;;;;;;;21.79;58.45;96856.97;10321014;28;20475;-25
2022/08/01 19:50:20;;;;;;;2.33;1.70;;;;;;;21.75;58.83;96862.97;10318979;28;20521;-26
2022/08/01 19:55:22;;;;;;;2.20;1.47;;;;;;;21.75;58.43;96874.88;10320326;28;20038;-25
2022/08/01 20:00:24;;;;;;;2.25;1.60;;;;;;;21.74;59.02;96871.47;10321902;28;20089;-26
2022/08/01 20:05:25;;;;;;;1.95;1.60;;;;;;;21.93;59.95;96877.22;10318196;28;20085;-25
2022/08/01 20:10:26;;;;;;;2.63;1.30;;;;;;;22.02;58.96;96872.88;10321876;28;20042;-25
2022/08/01 20:15:27;;;;;;;1.80;1.38;;;;;;;21.88;59.87;96879.81;10318918;28;20046;-26
2022/08/01 20:20:30;;;;;;;3.65;1.65;;;;;;;21.85;59.47;96890.06;10315005;28;20038;-26
2022/08/01 20:25:32;;;;;;;2.13;1.63;;;;;;;21.88;61.97;96890.00;10322724;28;20038;-28
2022/08/01 20:30:33;;;;;;;1.52;1.40;;;;;;;21.88;61.67;96890.00;10318414;28;20037;-24
2022/08/01 20:35:36;;;;;;;1.87;1.50;;;;;;;21.79;62.19;96892.66;10319388;28;20026;-25
2022/08/01 20:40:38;;;;;;;3.80;1.52;;;;;;;21.85;62.27;96902.81;10317131;28;20065;-26
2022/08/01 20:45:40;;;;;;;4.40;2.42;;;;;;;22.00;62.83;96887.34;10311893;28;20045;-25
2022/08/01 20:56:11;;;;;;;1.48;1.30;;;;;;;20.51;69.03;96902.94;10318985;28;20035;-25
2022/08/01 21:01:16;;;;;;;1.48;1.38;;;;;;;20.43;69.92;96909.75;10321875;28;20122;-26
2022/08/01 21:06:24;;;;;;;1.45;1.13;;;;;;;20.38;70.71;96902.16;10325130;28;20542;-25
2022/08/01 21:11:46;;;;;;;1.50;1.40;;;;;;;20.37;70.62;96895.38;10330651;28;20034;-26
2022/08/01 21:17:00;;;;;;;1.77;1.20;;;;;;;20.32;70.86;96894.53;10327720;28;20055;-25
2022/08/01 21:22:08;;;;;;;2.35;1.40;;;;;;;20.26;70.64;96897.13;10323871;28;20040;-26
2022/08/01 21:27:12;;;;;;;1.48;1.30;;;;;;;20.33;70.29;96891.19;10331921;28;20034;-25
2022/08/01 21:32:14;;;;;;;1.48;1.38;;;;;;;20.32;69.79;96895.41;10330299;28;20477;-26
2022/08/01 21:37:16;;;;;;;1.35;1.25;;;;;;;20.29;70.31;96894.56;10328016;28;20558;-26
2022/08/01 21:42:16;;;;;;;1.65;1.38;;;;;;;20.20;70.85;96899.69;10328183;28;20034;-26
2022/08/01 21:47:17;;;;;;;1.53;1.23;;;;;;;20.16;70.90;96901.41;10330499;28;20034;-26
2022/08/01 21:52:19;;;;;;;1.23;1.10;;;;;;;20.14;70.84;96899.69;10319047;28;20712;-25
2022/08/01 21:57:50;;;;;;;1.38;1.27;;;;;;;20.17;70.67;96914.97;10329165;28;20034;-25
2022/08/01 22:03:08;;;;;;;1.60;1.35;;;;;;;20.14;70.67;96920.03;10322649;28;20108;-26
2022/08/01 22:08:09;;;;;;;1.83;1.40;;;;;;;20.12;70.77;96926.84;10323348;28;20038;-26
2022/08/01 22:13:11;;;;;;;1.70;1.23;;;;;;;20.12;70.93;96942.94;10326983;28;20042;-25
2022/08/01 22:18:11;;;;;;;1.10;0.90;;;;;;;20.10;70.90;96938.72;10320413;28;20081;-25
2022/08/01 22:23:12;;;;;;;2.27;1.20;;;;;;;20.07;70.90;96941.25;10325745;28;20137;-25
2022/08/01 22:28:17;;;;;;;1.30;1.20;;;;;;;20.02;70.85;96945.47;10329397;28;20038;-25
2022/08/01 22:33:18;;;;;;;2.33;1.08;;;;;;;20.01;70.97;96943.78;10324789;28;20416;-25
2022/08/01 22:38:21;;;;;;;1.35;1.25;;;;;;;20.00;71.13;96952.25;10325614;28;20052;-25
2022/08/01 22:43:58;;;;;;;2.47;1.83;;;;;;;20.01;70.92;96943.78;10324226;28;20046;-25
2022/08/01 22:49:16;;;;;;;1.10;1.00;;;;;;;20.00;71.12;96947.19;10307782;28;20042;-26
2022/08/01 22:54:25;;;;;;;1.45;0.98;;;;;;;20.00;70.66;96957.34;10325309;28;20046;-25
2022/08/01 22:59:31;;;;;;;0.88;0.88;;;;;;;19.94;70.73;96958.19;10320442;28;20096;-25
2022/08/01 23:04:38;;;;;;;2.00;1.37;;;;;;;19.91;70.92;96952.28;10319904;28;20057;-25
2022/08/01 23:09:40;;;;;;;1.10;1.00;;;;;;;19.88;70.96;96952.28;10326089;28;20324;-25
2022/08/01 23:14:41;;;;;;;1.35;1.10;;;;;;;19.90;70.43;96951.44;10326119;28;20121;-25
2022/08/01 23:19:41;;;;;;;1.60;1.30;;;;;;;19.94;70.55;96952.28;10327541;28;20042;-25
2022/08/01 23:24:44;;;;;;;1.33;1.13;;;;;;;19.88;70.71;96959.91;10323143;28;20038;-25
2022/08/01 23:29:48;;;;;;;1.60;1.10;;;;;;;19.89;70.58;96964.13;10326566;28;20066;-25
2022/08/01 23:34:49;;;;;;;5.20;0.90;;;;;;;19.82;70.92;96968.38;10320193;28;20049;-25
2022/08/01 23:39:49;;;;;;;3.00;1.10;;;;;;;19.83;70.79;96964.16;10323709;28;20035;-25
2022/08/01 23:44:50;;;;;;;2.37;1.50;;;;;;;19.86;70.85;96961.59;10324908;28;20498;-25
2022/08/01 23:49:50;;;;;;;2.65;1.10;;;;;;;19.90;70.46;96955.66;10326949;28;20034;-25
2022/08/01 23:54:50;;;;;;;2.53;1.37;;;;;;;19.76;70.67;96959.94;10325641;28;20141;-25
2022/08/01 23:59:52;;;;;;;2.67;1.33;;;;;;;19.79;70.83;96963.31;10325854;28;20308;-25
